createdAt,value
2022-09-11T00:01:55.236Z,54.90
2022-09-11T00:04:21.723Z,54.90
2022-09-11T00:06:48.194Z,54.80
2022-09-11T00:09:14.669Z,54.90
2022-09-11T00:11:41.143Z,54.80
2022-09-11T00:14:07.604Z,54.80
2022-09-11T00:16:34.078Z,54.80
2022-09-11T00:19:00.532Z,54.60
2022-09-11T00:21:27.010Z,54.70
2022-09-11T00:23:59.579Z,54.80
2022-09-11T00:26:26.054Z,54.70
2022-09-11T00:28:52.510Z,54.70
2022-09-11T00:31:19.019Z,54.70
2022-09-11T00:33:45.524Z,54.70
2022-09-11T00:36:11.994Z,54.70
2022-09-11T00:38:38.451Z,54.70
2022-09-11T00:41:04.933Z,54.70
2022-09-11T00:43:35.452Z,54.60
2022-09-11T00:46:01.949Z,54.70
2022-09-11T00:48:28.425Z,54.70
2022-09-11T00:50:54.902Z,54.80
2022-09-11T00:53:21.397Z,54.80
2022-09-11T00:55:53.454Z,54.70
2022-09-11T00:58:19.949Z,54.70
2022-09-11T01:00:47.449Z,54.70
2022-09-11T01:03:13.943Z,54.60
2022-09-11T01:05:40.425Z,54.60
2022-09-11T01:08:06.895Z,54.60
2022-09-11T01:10:35.417Z,54.50
2022-09-11T01:13:01.891Z,54.60
2022-09-11T01:15:28.369Z,54.60
2022-09-11T01:17:54.866Z,54.50
2022-09-11T01:20:21.328Z,54.50
2022-09-11T01:22:47.806Z,54.40
2022-09-11T01:25:14.276Z,54.50
2022-09-11T01:27:40.737Z,54.40
2022-09-11T01:30:09.548Z,54.40
2022-09-11T01:32:37.927Z,54.50
2022-09-11T01:35:05.450Z,54.50
2022-09-11T01:37:31.935Z,54.50
2022-09-11T01:39:58.480Z,54.40
2022-09-11T01:42:25.003Z,54.50
2022-09-11T01:44:51.467Z,54.40
2022-09-11T01:47:17.965Z,54.40
2022-09-11T01:49:47.697Z,54.40
2022-09-11T01:52:14.181Z,54.30
2022-09-11T01:54:40.653Z,54.40
2022-09-11T01:57:07.157Z,54.50
2022-09-11T01:59:33.628Z,54.50
2022-09-11T02:02:00.191Z,54.40
2022-09-11T02:04:29.648Z,54.40
2022-09-11T02:06:56.123Z,54.40
2022-09-11T02:09:23.520Z,54.40
2022-09-11T02:11:49.990Z,54.40
2022-09-11T02:14:16.459Z,54.30
2022-09-11T02:16:42.939Z,54.40
2022-09-11T02:19:09.407Z,54.30
2022-09-11T02:21:35.888Z,54.40
2022-09-11T02:24:02.359Z,54.40
2022-09-11T02:26:28.839Z,54.40
2022-09-11T02:28:55.308Z,54.30
2022-09-11T02:31:23.535Z,54.30
2022-09-11T02:33:50.026Z,54.30
2022-09-11T02:36:17.484Z,54.30
2022-09-11T02:38:43.984Z,54.20
2022-09-11T02:41:10.460Z,54.20
2022-09-11T02:43:36.969Z,54.30
2022-09-11T02:46:03.503Z,54.30
2022-09-11T02:48:30.061Z,54.20
2022-09-11T02:50:56.532Z,54.30
2022-09-11T02:53:23.020Z,54.20
2022-09-11T02:55:49.497Z,54.20
2022-09-11T02:58:17.561Z,54.20
2022-09-11T03:00:44.069Z,54.20
2022-09-11T03:03:10.658Z,54.20
2022-09-11T03:05:37.138Z,54.30
2022-09-11T03:08:03.616Z,54.20
2022-09-11T03:10:35.608Z,54.10
2022-09-11T03:13:02.117Z,54.20
2022-09-11T03:15:28.595Z,54.20
2022-09-11T03:17:55.104Z,54.10
2022-09-11T03:20:21.576Z,54.20
2022-09-11T03:22:48.037Z,54.20
2022-09-11T03:25:14.504Z,54.10
2022-09-11T03:27:41.542Z,54.10
2022-09-11T03:30:11.584Z,54.20
2022-09-11T03:32:38.061Z,54.20
2022-09-11T03:35:04.523Z,54.20
2022-09-11T03:37:30.994Z,54.20
2022-09-11T03:39:57.504Z,54.30
2022-09-11T03:42:24.035Z,54.20
2022-09-11T03:44:50.521Z,54.10
2022-09-11T03:47:16.984Z,54.20
2022-09-11T03:49:43.449Z,54.10
2022-09-11T03:52:09.913Z,54.10
2022-09-11T03:54:36.397Z,54.10
2022-09-11T03:57:11.792Z,54.10
2022-09-11T03:59:41.620Z,54.10
2022-09-11T04:02:23.619Z,54.20
2022-09-11T04:04:53.600Z,54.20
2022-09-11T04:07:20.061Z,54.20
2022-09-11T04:09:46.554Z,54.30
2022-09-11T04:12:13.034Z,54.30
2022-09-11T04:14:41.617Z,54.60
2022-09-11T04:17:08.073Z,54.70
2022-09-11T04:19:34.541Z,54.80
2022-09-11T04:22:01.021Z,54.90
2022-09-11T04:24:27.497Z,54.80
2022-09-11T04:26:58.603Z,55.10
2022-09-11T04:29:27.047Z,55.10
2022-09-11T04:31:53.545Z,55.20
2022-09-11T04:34:20.036Z,55.20
2022-09-11T04:36:46.493Z,55.30
2022-09-11T04:39:12.979Z,55.30
2022-09-11T04:41:39.459Z,55.20
2022-09-11T04:44:05.942Z,55.30
2022-09-11T04:46:32.420Z,55.30
2022-09-11T04:48:59.631Z,55.30
2022-09-11T04:51:26.086Z,55.30
2022-09-11T04:53:52.571Z,55.30
2022-09-11T04:56:19.047Z,55.30
2022-09-11T04:58:45.543Z,55.30
2022-09-11T05:01:12.071Z,55.30
2022-09-11T05:03:38.651Z,55.30
2022-09-11T05:06:05.214Z,55.40
2022-09-11T05:08:31.719Z,55.50
2022-09-11T05:10:58.196Z,55.50
2022-09-11T05:13:24.689Z,55.50
2022-09-11T05:15:51.164Z,55.50
2022-09-11T05:18:17.647Z,55.50
2022-09-11T05:20:44.119Z,55.60
2022-09-11T05:26:01.807Z,55.60
2022-09-11T05:28:28.282Z,55.60
2022-09-11T05:30:54.753Z,55.70
2022-09-11T05:33:21.215Z,55.70
2022-09-11T05:35:47.729Z,55.60
2022-09-11T05:38:14.201Z,55.70
2022-09-11T05:40:40.685Z,55.70
2022-09-11T05:43:07.164Z,55.60
2022-09-11T05:45:33.672Z,55.70
2022-09-11T05:48:00.197Z,55.70
2022-09-11T05:50:29.661Z,55.90
2022-09-11T05:52:56.136Z,55.80
2022-09-11T05:55:22.600Z,55.80
2022-09-11T05:57:49.077Z,55.60
2022-09-11T06:00:15.542Z,55.60
2022-09-11T06:02:42.025Z,55.70
2022-09-11T06:05:08.506Z,55.80
2022-09-11T06:07:34.980Z,55.70
2022-09-11T06:10:03.342Z,55.70
2022-09-11T06:12:35.707Z,55.70
2022-09-11T06:15:02.172Z,55.80
2022-09-11T06:17:28.645Z,55.90
2022-09-11T06:19:55.111Z,55.80
2022-09-11T06:22:21.580Z,55.90
2022-09-11T06:24:53.732Z,55.90
2022-09-11T06:27:20.197Z,55.80
2022-09-11T06:29:46.675Z,55.70
2022-09-11T06:32:13.141Z,55.90
2022-09-11T06:34:39.624Z,55.80
2022-09-11T06:37:11.753Z,55.90
2022-09-11T06:39:41.803Z,55.90
2022-09-11T06:42:11.892Z,55.90
2022-09-11T06:44:38.354Z,55.80
2022-09-11T06:47:04.810Z,55.90
2022-09-11T06:49:31.303Z,55.80
2022-09-11T06:51:57.790Z,55.90
2022-09-11T06:54:24.265Z,55.90
2022-09-11T06:56:53.706Z,55.90
2022-09-11T06:59:20.189Z,55.90
2022-09-11T07:01:46.767Z,55.90
2022-09-11T07:04:13.339Z,55.90
2022-09-11T07:06:39.813Z,55.80
2022-09-11T07:09:06.307Z,55.80
2022-09-11T07:11:35.774Z,56.10
2022-09-11T07:14:02.280Z,56.00
2022-09-11T07:16:28.834Z,56.10
2022-09-11T07:18:55.389Z,56.20
2022-09-11T07:21:21.865Z,56.10
2022-09-11T07:23:53.976Z,56.20
2022-09-11T07:26:20.447Z,56.20
2022-09-11T07:28:46.926Z,56.10
2022-09-11T07:31:16.340Z,56.20
2022-09-11T07:33:46.506Z,56.20
2022-09-11T07:36:12.980Z,56.30
2022-09-11T07:38:39.456Z,56.30
2022-09-11T07:41:05.939Z,56.30
2022-09-11T07:43:32.422Z,56.20
2022-09-11T07:45:58.990Z,56.40
2022-09-11T07:48:25.480Z,56.30
2022-09-11T07:50:51.961Z,56.20
2022-09-11T07:53:18.443Z,56.20
2022-09-11T07:58:41.790Z,56.30
2022-09-11T08:01:08.305Z,56.40
2022-09-11T08:03:35.750Z,56.50
2022-09-11T08:06:05.796Z,56.40
2022-09-11T08:08:35.948Z,56.30
2022-09-11T08:11:05.825Z,56.30
2022-09-11T08:13:36.089Z,56.20
2022-09-11T08:16:05.870Z,56.30
2022-09-11T08:18:32.363Z,56.10
2022-09-11T08:20:58.824Z,56.10
2022-09-11T08:23:29.864Z,56.00
2022-09-11T08:25:56.336Z,55.90
2022-09-11T08:28:22.799Z,56.00
2022-09-11T08:30:49.338Z,56.00
2022-09-11T08:33:15.866Z,55.80
2022-09-11T08:38:32.489Z,55.80
2022-09-11T08:40:59.832Z,55.50
2022-09-11T08:43:26.305Z,55.30
2022-09-11T08:45:52.863Z,55.30
2022-09-11T08:48:19.352Z,55.30
2022-09-11T08:50:47.897Z,55.30
2022-09-11T08:53:17.838Z,55.20
2022-09-11T08:55:44.339Z,55.30
2022-09-11T08:58:24.063Z,55.20
2022-09-11T09:00:50.555Z,55.00
2022-09-11T09:08:53.879Z,54.70
2022-09-11T09:11:20.353Z,54.60
2022-09-11T09:13:46.829Z,54.60
2022-09-11T09:16:13.364Z,54.50
2022-09-11T09:18:39.847Z,54.60
2022-09-11T09:21:06.326Z,54.80
2022-09-11T09:23:32.814Z,54.90
2022-09-11T09:28:53.882Z,54.80
2022-09-11T09:34:10.756Z,55.10
2022-09-11T09:36:37.257Z,55.00
2022-09-11T09:39:05.847Z,54.80
2022-09-11T09:41:32.362Z,55.10
2022-09-11T09:44:05.893Z,55.80
2022-09-11T09:49:23.908Z,57.90
2022-09-11T09:51:50.378Z,58.60
2022-09-11T09:59:51.690Z,57.90
2022-09-11T10:02:18.223Z,57.80
2022-09-11T10:04:44.715Z,57.70
2022-09-11T10:10:01.715Z,57.40
2022-09-11T10:18:05.913Z,57.10
2022-09-11T10:23:23.912Z,56.80
2022-09-11T10:25:50.410Z,56.80
2022-09-11T10:28:16.887Z,56.70
2022-09-11T10:30:43.386Z,56.60
2022-09-11T10:33:11.878Z,56.50
2022-09-11T10:35:41.934Z,56.50
2022-09-11T10:38:11.973Z,56.40
2022-09-11T10:40:38.463Z,56.30
2022-09-11T10:43:04.948Z,56.30
2022-09-11T10:45:31.490Z,56.30
2022-09-11T10:47:58.044Z,56.20
2022-09-11T10:50:24.544Z,56.30
2022-09-11T10:52:51.034Z,56.20
2022-09-11T10:55:17.510Z,56.20
2022-09-11T10:57:43.989Z,56.20
2022-09-11T11:00:10.481Z,56.10
2022-09-11T11:02:42.014Z,56.30
2022-09-11T11:05:08.504Z,56.30
2022-09-11T11:07:34.971Z,56.10
2022-09-11T11:10:01.465Z,56.00
2022-09-11T11:12:29.899Z,56.20
2022-09-11T11:14:56.359Z,56.10
2022-09-11T11:17:23.961Z,56.00
2022-09-11T11:19:50.425Z,56.00
2022-09-11T11:22:16.898Z,56.00
2022-09-11T11:24:47.939Z,56.00
2022-09-11T11:27:14.415Z,56.10
2022-09-11T11:29:54.175Z,56.00
2022-09-11T11:32:23.988Z,56.10
2022-09-11T11:34:50.470Z,56.00
2022-09-11T11:37:16.931Z,56.00
2022-09-11T11:39:43.415Z,56.00
2022-09-11T11:45:00.766Z,56.00
2022-09-11T11:50:17.603Z,56.30
2022-09-11T11:52:44.081Z,56.10
2022-09-11T11:55:10.615Z,55.90
2022-09-11T11:57:37.080Z,56.10
2022-09-11T12:00:06.010Z,56.10
2022-09-11T12:02:36.015Z,56.00
2022-09-11T12:05:05.997Z,56.00
2022-09-11T12:07:36.152Z,55.80
2022-09-11T12:10:02.636Z,55.80
2022-09-11T12:12:29.104Z,55.70
2022-09-11T12:17:45.818Z,55.70
2022-09-11T12:20:12.383Z,55.80
2022-09-11T12:22:38.955Z,55.70
2022-09-11T12:25:06.010Z,55.70
2022-09-11T12:27:36.224Z,55.60
2022-09-11T12:38:35.870Z,55.80
2022-09-11T12:41:02.347Z,55.70
2022-09-11T12:43:36.042Z,55.70
2022-09-11T12:46:02.598Z,55.60
2022-09-11T12:48:29.097Z,55.60
2022-09-11T12:51:00.035Z,55.70
2022-09-11T12:53:30.197Z,55.60
2022-09-11T12:56:00.047Z,55.60
2022-09-11T12:58:30.133Z,55.70
2022-09-11T13:00:56.620Z,55.60
2022-09-11T13:03:24.013Z,55.60
2022-09-11T13:05:50.499Z,55.50
2022-09-11T13:08:18.020Z,55.60
2022-09-11T13:10:44.516Z,55.40
2022-09-11T13:13:10.980Z,55.50
2022-09-11T13:15:37.498Z,55.50
2022-09-11T13:18:04.009Z,55.40
2022-09-11T13:20:30.512Z,55.40
2022-09-11T13:22:58.631Z,55.30
2022-09-11T13:25:25.292Z,55.40
2022-09-11T13:27:51.756Z,55.40
2022-09-11T13:30:18.256Z,55.40
2022-09-11T13:32:44.740Z,55.30
2022-09-11T13:35:11.229Z,55.30
2022-09-11T13:37:37.710Z,55.30
2022-09-11T13:40:04.387Z,55.30
2022-09-11T13:42:36.262Z,55.20
2022-09-11T13:45:06.091Z,55.00
2022-09-11T13:47:32.560Z,55.00
2022-09-11T13:49:59.053Z,55.00
2022-09-11T13:52:25.525Z,55.00
2022-09-11T13:54:54.040Z,55.10
2022-09-11T13:57:20.519Z,55.10
2022-09-11T13:59:47.028Z,54.80
2022-09-11T14:02:13.564Z,54.80
2022-09-11T14:04:42.107Z,54.60
2022-09-11T14:07:12.109Z,54.80
2022-09-11T14:09:38.573Z,54.60
2022-09-11T14:12:05.076Z,54.70
2022-09-11T14:14:31.560Z,54.30
2022-09-11T14:16:58.058Z,54.50
2022-09-11T14:19:24.543Z,54.30
2022-09-11T14:21:51.038Z,54.50
2022-09-11T14:24:17.498Z,54.60
2022-09-11T14:26:43.958Z,54.30
2022-09-11T14:29:10.462Z,54.30
2022-09-11T14:31:36.921Z,54.60
2022-09-11T14:34:03.399Z,54.60
2022-09-11T14:36:29.873Z,54.40
2022-09-11T14:38:56.353Z,54.70
2022-09-11T14:41:22.830Z,54.60
2022-09-11T14:43:54.294Z,54.80
2022-09-11T14:46:20.825Z,54.60
2022-09-11T14:48:47.312Z,54.70
2022-09-11T14:51:13.899Z,54.50
2022-09-11T14:53:40.443Z,54.60
2022-09-11T14:56:12.134Z,54.40
2022-09-11T14:58:38.626Z,54.50
2022-09-11T15:01:05.127Z,54.70
2022-09-11T15:03:31.696Z,54.60
2022-09-11T15:05:58.261Z,54.90
2022-09-11T15:08:24.738Z,55.10
2022-09-11T15:10:51.225Z,54.80
2022-09-11T15:13:17.711Z,54.80
2022-09-11T15:15:48.184Z,54.80
2022-09-11T15:18:14.683Z,54.80
2022-09-11T15:20:41.146Z,54.90
2022-09-11T15:23:07.627Z,54.90
2022-09-11T15:25:36.166Z,54.80
2022-09-11T15:28:06.348Z,54.70
2022-09-11T15:30:32.829Z,54.70
2022-09-11T15:32:59.297Z,54.80
2022-09-11T15:35:29.527Z,54.60
2022-09-11T15:37:58.672Z,54.60
2022-09-11T15:40:25.152Z,54.70
2022-09-11T15:42:51.632Z,54.70
2022-09-11T15:45:18.112Z,54.90
2022-09-11T15:47:44.593Z,54.80
2022-09-11T15:50:12.171Z,54.80
2022-09-11T15:52:38.640Z,54.80
2022-09-11T15:55:05.124Z,54.80
2022-09-11T15:57:31.606Z,54.80
2022-09-11T15:59:58.083Z,54.60
2022-09-11T16:02:24.639Z,54.70
2022-09-11T16:04:53.792Z,54.60
2022-09-11T16:07:24.238Z,54.60
2022-09-11T16:09:50.745Z,54.70
2022-09-11T16:12:17.212Z,54.70
2022-09-11T16:14:43.723Z,54.70
2022-09-11T16:17:10.183Z,54.70
2022-09-11T16:19:36.675Z,54.60
2022-09-11T16:22:03.154Z,54.70
2022-09-11T16:24:29.636Z,54.60
2022-09-11T16:27:00.230Z,54.70
2022-09-11T16:29:37.814Z,54.70
2022-09-11T16:32:13.164Z,54.60
2022-09-11T16:34:39.647Z,54.60
2022-09-11T16:37:06.142Z,54.60
2022-09-11T16:39:32.629Z,54.70
2022-09-11T16:41:59.113Z,54.60
2022-09-11T16:44:30.370Z,54.60
2022-09-11T16:46:56.863Z,54.50
2022-09-11T16:49:23.352Z,54.40
2022-09-11T16:51:49.848Z,54.30
2022-09-11T16:54:16.307Z,54.20
2022-09-11T16:56:45.836Z,54.20
2022-09-11T16:59:12.606Z,54.20
2022-09-11T17:01:39.105Z,54.20
2022-09-11T17:04:05.615Z,54.20
2022-09-11T17:06:32.112Z,54.20
2022-09-11T17:09:00.242Z,54.30
2022-09-11T17:11:26.743Z,54.40
2022-09-11T17:13:53.206Z,54.50
2022-09-11T17:16:19.730Z,54.60
2022-09-11T17:18:48.200Z,54.70
2022-09-11T17:21:14.673Z,54.70
2022-09-11T17:23:41.142Z,54.70
2022-09-11T17:26:12.269Z,54.70
2022-09-11T17:28:38.744Z,54.70
2022-09-11T17:31:05.283Z,54.80
2022-09-11T17:33:36.485Z,54.80
2022-09-11T17:36:02.966Z,54.80
2022-09-11T17:38:29.433Z,54.80
2022-09-11T17:40:55.895Z,54.80
2022-09-11T17:43:22.369Z,54.60
2022-09-11T17:45:54.279Z,54.60
2022-09-11T17:48:20.750Z,54.60
2022-09-11T17:50:47.235Z,54.50
2022-09-11T17:53:13.713Z,54.60
2022-09-11T17:55:42.284Z,54.60
2022-09-11T17:58:12.350Z,54.60
2022-09-11T18:00:38.891Z,54.50
2022-09-11T18:03:06.258Z,54.60
2022-09-11T18:05:36.286Z,54.50
2022-09-11T18:08:02.761Z,54.50
2022-09-11T18:10:30.298Z,54.50
2022-09-11T18:12:56.783Z,54.50
2022-09-11T18:15:24.279Z,54.50
2022-09-11T18:17:50.764Z,54.50
2022-09-11T18:20:17.241Z,54.50
2022-09-11T18:23:00.517Z,54.50
2022-09-11T18:25:27.006Z,54.50
2022-09-11T18:27:53.489Z,54.60
2022-09-11T18:30:20.002Z,54.50
2022-09-11T18:32:46.475Z,54.50
2022-09-11T18:35:12.935Z,54.60
2022-09-11T18:37:39.414Z,54.50
2022-09-11T18:40:05.965Z,54.60
2022-09-11T18:42:32.489Z,54.50
2022-09-11T18:44:59.965Z,54.50
2022-09-11T18:47:26.527Z,54.50
2022-09-11T18:49:52.999Z,54.50
2022-09-11T18:52:23.936Z,54.40
2022-09-11T18:54:52.471Z,54.50
2022-09-11T18:57:20.055Z,54.50
2022-09-11T18:59:46.521Z,54.60
2022-09-11T19:02:13.023Z,54.60
2022-09-11T19:04:39.502Z,54.70
2022-09-11T19:07:05.973Z,54.70
2022-09-11T19:09:32.444Z,54.60
2022-09-11T19:12:00.215Z,54.60
2022-09-11T19:14:26.945Z,54.60
2022-09-11T19:16:53.420Z,54.70
2022-09-11T19:19:19.894Z,54.70
2022-09-11T19:21:46.370Z,54.80
2022-09-11T19:24:12.848Z,54.70
2022-09-11T19:29:30.041Z,54.80
2022-09-11T19:31:56.518Z,54.90
2022-09-11T19:34:22.991Z,54.90
2022-09-11T19:36:54.386Z,54.80
2022-09-11T19:39:20.867Z,54.70
2022-09-11T19:41:48.391Z,54.80
2022-09-11T19:44:18.570Z,54.80
2022-09-11T19:46:45.101Z,54.70
2022-09-11T19:49:11.603Z,54.70
2022-09-11T19:51:38.085Z,54.80
2022-09-11T19:54:04.567Z,54.80
2022-09-11T19:56:31.042Z,54.80
2022-09-11T19:58:57.521Z,54.80
2022-09-11T20:01:24.027Z,54.70
2022-09-11T20:03:50.491Z,54.80
2022-09-11T20:06:16.981Z,54.80
2022-09-11T20:09:13.403Z,54.80
2022-09-11T20:11:42.417Z,54.70
2022-09-11T20:14:12.473Z,54.80
2022-09-11T20:16:42.410Z,54.70
2022-09-11T20:19:12.590Z,54.70
2022-09-11T20:21:42.407Z,54.70
2022-09-11T20:24:08.891Z,54.70
2022-09-11T20:26:36.407Z,54.60
2022-09-11T20:29:02.881Z,54.70
2022-09-11T20:31:30.485Z,54.70
2022-09-11T20:33:57.163Z,54.60
2022-09-11T20:36:23.667Z,54.50
2022-09-11T20:38:50.129Z,54.60
2022-09-11T20:41:16.621Z,54.50
2022-09-11T20:43:43.127Z,54.50
2022-09-11T20:46:09.626Z,54.50
2022-09-11T20:48:36.110Z,54.50
2022-09-11T20:51:02.595Z,54.50
2022-09-11T20:53:30.426Z,54.40
2022-09-11T20:56:00.591Z,54.50
2022-09-11T20:58:27.078Z,54.50
2022-09-11T21:00:53.593Z,54.50
2022-09-11T21:03:20.110Z,54.40
2022-09-11T21:05:46.578Z,54.60
2022-09-11T21:08:13.059Z,54.60
2022-09-11T21:10:39.519Z,54.50
2022-09-11T21:13:06.012Z,54.50
2022-09-11T21:15:32.485Z,54.40
2022-09-11T21:17:58.981Z,54.50
2022-09-11T21:20:25.459Z,54.50
2022-09-11T21:22:51.942Z,54.40
2022-09-11T21:25:18.406Z,54.30
2022-09-11T21:27:44.878Z,54.30
2022-09-11T21:30:11.356Z,54.30
2022-09-11T21:32:37.841Z,54.20
2022-09-11T21:35:04.304Z,54.20
2022-09-11T21:37:30.807Z,54.30
2022-09-11T21:39:57.286Z,54.20
2022-09-11T21:42:23.812Z,54.10
2022-09-11T21:44:50.280Z,54.20
2022-09-11T21:50:07.084Z,54.20
2022-09-11T21:52:33.575Z,54.10
2022-09-11T21:55:00.039Z,54.00
2022-09-11T21:57:26.519Z,54.00
2022-09-11T21:59:52.998Z,54.00
2022-09-11T22:02:19.538Z,54.00
2022-09-11T22:04:46.061Z,54.00
2022-09-11T22:07:12.525Z,53.90
2022-09-11T22:09:39.002Z,53.90
2022-09-11T22:12:05.487Z,53.90
2022-09-11T22:14:36.627Z,53.80
2022-09-11T22:17:06.487Z,53.80
2022-09-11T22:19:32.945Z,53.80
2022-09-11T22:21:59.423Z,53.90
2022-09-11T22:24:25.892Z,53.80
2022-09-11T22:26:54.476Z,53.80
2022-09-11T22:29:20.963Z,53.70
2022-09-11T22:31:47.474Z,53.50
2022-09-11T22:34:13.977Z,53.40
2022-09-11T22:36:40.449Z,53.50
2022-09-11T22:39:06.951Z,53.60
2022-09-11T22:41:33.441Z,53.50
2022-09-11T22:43:59.935Z,53.70
2022-09-11T22:46:30.520Z,53.70
2022-09-11T22:48:57.014Z,53.70
2022-09-11T22:51:23.497Z,53.60
2022-09-11T22:53:49.964Z,53.70
2022-09-11T22:56:18.478Z,53.70
2022-09-11T22:58:45.140Z,53.70
2022-09-11T23:01:11.774Z,53.60
2022-09-11T23:03:38.327Z,53.50
2022-09-11T23:06:04.974Z,53.10
2022-09-11T23:08:34.673Z,53.20
2022-09-11T23:11:03.569Z,53.60
2022-09-11T23:13:30.040Z,53.50
2022-09-11T23:15:56.547Z,53.50
2022-09-11T23:18:23.060Z,53.30
2022-09-11T23:20:49.524Z,53.40
2022-09-11T23:23:15.988Z,53.50
2022-09-11T23:25:42.459Z,53.40
2022-09-11T23:28:12.552Z,53.30
2022-09-11T23:30:39.064Z,53.20
2022-09-11T23:33:05.535Z,53.40
2022-09-11T23:35:32.020Z,53.30
2022-09-11T23:37:58.495Z,53.10
2022-09-11T23:40:24.990Z,53.10
2022-09-11T23:42:54.570Z,53.30
2022-09-11T23:45:21.092Z,53.20
2022-09-11T23:47:47.626Z,53.20
2022-09-11T23:50:14.078Z,53.00
2022-09-11T23:52:40.565Z,53.10
2022-09-11T23:55:12.598Z,53.10
2022-09-11T23:57:39.100Z,53.10
